createdAt,value
2019-03-05T00:02:32.719Z,8.00
2019-03-05T00:06:50.891Z,7.90
2019-03-05T00:11:09.050Z,7.90
2019-03-05T00:15:28.104Z,7.90
2019-03-05T00:19:46.728Z,7.80
2019-03-05T00:24:48.833Z,7.80
2019-03-05T00:29:58.796Z,7.80
2019-03-05T00:35:17.385Z,7.80
2019-03-05T00:40:21.348Z,7.70
2019-03-05T00:45:25.873Z,7.70
2019-03-05T00:50:40.687Z,7.70
2019-03-05T00:55:50.949Z,7.60
2019-03-05T01:01:17.985Z,7.60
2019-03-05T01:06:20.305Z,7.60
2019-03-05T01:10:38.546Z,7.60
2019-03-05T01:14:59.529Z,7.60
2019-03-05T01:19:17.664Z,7.60
2019-03-05T01:23:35.784Z,7.70
2019-03-05T01:27:54.551Z,7.60
2019-03-05T01:32:31.761Z,7.70
2019-03-05T01:36:53.590Z,7.70
2019-03-05T01:41:12.716Z,7.70
2019-03-05T01:45:30.846Z,7.60
2019-03-05T01:49:49.450Z,7.60
2019-03-05T01:54:07.572Z,7.60
2019-03-05T01:58:25.867Z,7.60
2019-03-05T02:02:45.299Z,7.60
2019-03-05T02:07:03.864Z,7.60
2019-03-05T02:11:22.093Z,7.60
2019-03-05T02:15:40.586Z,7.50
2019-03-05T04:54:54.113Z,6.80
2019-03-05T04:59:12.453Z,6.80
2019-03-05T05:03:30.704Z,6.80
2019-03-05T05:07:49.169Z,6.90
2019-03-05T05:12:07.265Z,6.90
2019-03-05T05:16:25.408Z,6.90
2019-03-05T05:20:43.565Z,6.90
2019-03-05T05:25:01.754Z,7.00
2019-03-05T05:29:20.030Z,6.90
2019-03-05T05:33:38.346Z,6.90
2019-03-05T05:37:56.511Z,7.00
2019-03-05T05:42:14.659Z,6.90
2019-03-05T05:46:33.295Z,6.90
2019-03-05T05:50:52.538Z,6.90
2019-03-05T05:55:11.259Z,6.90
2019-03-05T05:59:29.371Z,7.00
2019-03-05T06:03:47.552Z,7.00
2019-03-05T06:08:05.838Z,7.00
2019-03-05T06:12:24.965Z,7.00
2019-03-05T06:16:43.008Z,7.00
2019-03-05T06:21:01.581Z,7.10
2019-03-05T06:25:19.870Z,7.10
2019-03-05T06:29:37.979Z,7.10
2019-03-05T06:33:56.243Z,7.10
2019-03-05T06:38:14.443Z,7.20
2019-03-05T06:42:32.841Z,7.20
2019-03-05T06:46:51.468Z,7.30
2019-03-05T06:51:09.719Z,7.30
2019-03-05T06:55:28.023Z,7.40
2019-03-05T06:59:46.039Z,7.60
2019-03-05T07:04:04.241Z,7.70
2019-03-05T07:08:22.385Z,7.80
2019-03-05T07:13:08.744Z,7.90
2019-03-05T07:17:45.232Z,8.00
2019-03-05T07:22:51.333Z,8.10
2019-03-05T07:27:11.152Z,8.20
2019-03-05T07:31:29.895Z,8.30
2019-03-05T07:35:48.011Z,8.40
2019-03-05T07:40:07.325Z,8.50
2019-03-05T07:44:25.540Z,8.70
2019-03-05T07:48:43.724Z,8.90
2019-03-05T07:53:02.107Z,9.10
2019-03-05T07:57:20.994Z,9.30
2019-03-05T08:01:40.493Z,9.40
2019-03-05T08:05:58.681Z,9.50
2019-03-05T08:10:26.885Z,9.60
2019-03-05T08:15:31.921Z,9.60
2019-03-05T08:19:50.175Z,9.50
2019-03-05T08:24:08.774Z,9.50
2019-03-05T08:28:27.435Z,9.40
2019-03-05T08:32:47.073Z,9.40
2019-03-05T08:37:05.365Z,9.50
2019-03-05T08:41:23.609Z,9.90
2019-03-05T08:45:41.899Z,10.60
2019-03-05T08:50:00.276Z,11.50
2019-03-05T08:54:18.309Z,12.30
2019-03-05T08:58:36.440Z,13.10
2019-03-05T09:02:55.117Z,13.70
2019-03-05T09:07:13.335Z,13.90
2019-03-05T09:11:31.887Z,14.20
2019-03-05T09:15:49.920Z,14.60
2019-03-05T09:20:10.269Z,15.10
2019-03-05T09:24:28.333Z,15.60
2019-03-05T09:28:46.640Z,16.00
2019-03-05T09:33:06.483Z,16.50
2019-03-05T09:37:24.896Z,17.00
2019-03-05T09:41:44.504Z,17.10
2019-03-05T09:46:02.762Z,17.10
2019-03-05T09:50:24.066Z,17.10
2019-03-05T09:54:43.559Z,17.30
2019-03-05T09:59:01.836Z,17.60
2019-03-05T10:03:20.086Z,17.90
2019-03-05T10:07:38.237Z,18.30
2019-03-05T10:11:57.031Z,18.60
2019-03-05T10:16:15.927Z,18.80
2019-03-05T10:20:34.012Z,19.00
2019-03-05T10:24:52.743Z,19.10
2019-03-05T10:29:10.823Z,19.10
2019-03-05T10:33:28.958Z,19.00
2019-03-05T10:37:48.707Z,18.90
2019-03-05T10:42:07.200Z,18.50
2019-03-05T10:46:25.261Z,17.80
2019-03-05T10:50:43.502Z,17.00
2019-03-05T10:55:01.806Z,16.60
2019-03-05T10:59:20.065Z,16.50
2019-03-05T11:03:38.678Z,16.70
2019-03-05T11:07:56.874Z,16.90
2019-03-05T11:12:15.447Z,17.20
2019-03-05T11:16:33.770Z,17.40
2019-03-05T11:20:52.674Z,17.50
2019-03-05T11:25:12.449Z,17.40
2019-03-05T11:29:30.547Z,17.10
2019-03-05T11:33:48.702Z,16.70
2019-03-05T11:38:11.076Z,16.40
2019-03-05T11:42:29.580Z,16.10
2019-03-05T11:46:48.056Z,15.90
2019-03-05T11:51:06.994Z,15.70
2019-03-05T11:55:25.818Z,15.50
2019-03-05T11:59:44.007Z,15.40
2019-03-05T12:04:02.466Z,15.40
2019-03-05T12:08:21.121Z,15.20
2019-03-05T12:12:39.771Z,15.00
2019-03-05T12:16:58.109Z,14.80
2019-03-05T12:21:16.270Z,14.50
2019-03-05T12:25:36.229Z,14.30
2019-03-05T12:29:55.996Z,14.10
2019-03-05T12:34:14.386Z,14.00
2019-03-05T12:38:32.587Z,13.90
2019-03-05T12:42:54.992Z,13.80
2019-03-05T12:47:15.824Z,13.70
2019-03-05T12:51:33.807Z,13.60
2019-03-05T12:55:53.183Z,13.50
2019-03-05T13:00:16.818Z,13.40
2019-03-05T13:04:36.151Z,13.30
2019-03-05T13:08:54.225Z,13.20
2019-03-05T13:13:14.031Z,13.10
2019-03-05T13:17:32.470Z,13.10
2019-03-05T13:21:50.435Z,13.00
2019-03-05T13:26:09.265Z,12.90
2019-03-05T13:30:28.026Z,12.90
2019-03-05T13:34:46.485Z,12.80
2019-03-05T13:39:05.716Z,12.70
2019-03-05T13:43:25.576Z,12.60
2019-03-05T13:47:52.574Z,12.60
2019-03-05T13:52:56.824Z,12.50
2019-03-05T13:57:58.844Z,12.40
2019-03-05T14:03:00.599Z,12.30
2019-03-05T14:08:17.996Z,12.10
2019-03-05T14:12:36.220Z,11.90
2019-03-05T14:17:13.491Z,11.70
2019-03-05T14:21:31.746Z,11.60
2019-03-05T14:25:49.912Z,11.50
2019-03-05T14:30:12.783Z,11.40
2019-03-05T14:34:31.472Z,11.40
2019-03-05T14:38:49.661Z,11.30
2019-03-05T14:43:08.493Z,11.30
2019-03-05T14:47:27.104Z,11.20
2019-03-05T14:51:45.463Z,11.20
2019-03-05T14:56:05.194Z,11.10
2019-03-05T15:00:24.603Z,11.00
2019-03-05T15:04:43.179Z,10.90
2019-03-05T15:09:01.583Z,10.80
2019-03-05T15:13:21.695Z,10.80
2019-03-05T15:17:39.893Z,10.70
2019-03-05T15:21:58.054Z,10.60
2019-03-05T15:26:16.365Z,10.60
2019-03-05T15:30:34.691Z,10.50
2019-03-05T15:34:52.902Z,10.40
2019-03-05T15:39:11.408Z,10.30
2019-03-05T15:43:30.489Z,10.10
2019-03-05T15:47:48.715Z,10.10
2019-03-05T15:52:07.025Z,10.00
2019-03-05T15:56:25.637Z,9.90
2019-03-05T16:00:44.628Z,9.90
2019-03-05T16:05:11.364Z,9.80
2019-03-05T16:09:22.918Z,9.70
2019-03-05T16:13:45.069Z,9.70
2019-03-05T16:18:10.883Z,9.60
2019-03-05T16:22:32.064Z,9.50
2019-03-05T16:26:51.255Z,9.50
2019-03-05T16:31:29.173Z,9.40
2019-03-05T16:36:07.105Z,9.30
2019-03-05T16:40:52.357Z,9.30
2019-03-05T16:45:49.592Z,9.20
2019-03-05T16:50:17.439Z,9.20
2019-03-05T16:54:58.871Z,9.20
2019-03-05T16:59:31.043Z,9.20
2019-03-05T17:03:59.440Z,9.30
2019-03-05T17:08:43.202Z,9.30
2019-03-05T17:13:02.783Z,9.40
2019-03-05T17:17:24.129Z,9.40
2019-03-05T17:21:43.666Z,9.50
2019-03-05T17:26:04.327Z,9.60
2019-03-05T17:30:25.628Z,9.60
2019-03-05T17:34:47.210Z,9.50
2019-03-05T17:39:15.648Z,9.50
2019-03-05T17:43:41.560Z,9.50
2019-03-05T17:48:03.083Z,9.40
2019-03-05T17:52:23.866Z,9.30
2019-03-05T17:56:44.322Z,9.30
2019-03-05T18:01:04.378Z,9.30
2019-03-05T18:05:22.916Z,9.30
2019-03-05T18:09:41.225Z,9.30
2019-03-05T18:14:00.010Z,9.30
2019-03-05T18:18:18.451Z,9.40
2019-03-05T18:22:36.791Z,9.40
2019-03-05T18:26:55.717Z,9.40
2019-03-05T18:31:15.488Z,9.40
2019-03-05T18:35:34.486Z,9.40
2019-03-05T18:39:53.301Z,9.40
2019-03-05T18:44:11.726Z,9.40
2019-03-05T18:48:30.306Z,9.40
2019-03-05T18:52:50.336Z,9.30
2019-03-05T18:57:08.512Z,9.20
2019-03-05T19:01:26.759Z,9.20
2019-03-05T19:05:44.888Z,9.10
2019-03-05T19:10:04.634Z,9.00
2019-03-05T19:14:23.458Z,8.90
2019-03-05T19:18:41.897Z,8.90
2019-03-05T19:23:00.148Z,8.90
2019-03-05T19:27:25.960Z,8.80
2019-03-05T19:31:39.075Z,8.80
2019-03-05T19:35:57.206Z,8.90
2019-03-05T19:40:19.899Z,8.90
2019-03-05T19:44:39.833Z,9.00
2019-03-05T19:48:58.407Z,8.90
2019-03-05T19:53:16.578Z,8.90
2019-03-05T19:57:35.508Z,8.90
2019-03-05T20:01:54.212Z,8.90
2019-03-05T20:06:13.492Z,8.90
2019-03-05T20:10:32.223Z,8.80
2019-03-05T20:14:50.434Z,8.80
2019-03-05T20:19:08.939Z,8.80
2019-03-05T20:23:27.754Z,8.80
2019-03-05T20:27:46.269Z,8.80
2019-03-05T20:32:04.867Z,8.80
2019-03-05T20:36:23.353Z,8.80
2019-03-05T20:40:41.886Z,8.80
2019-03-05T20:45:08.307Z,8.90
2019-03-05T20:49:27.672Z,8.90
2019-03-05T20:53:46.309Z,8.90
2019-03-05T20:58:05.859Z,8.90
2019-03-05T21:02:24.557Z,8.90
2019-03-05T21:06:43.108Z,9.00
2019-03-05T21:11:01.901Z,9.00
2019-03-05T21:15:20.480Z,9.00
2019-03-05T21:19:38.802Z,9.10
2019-03-05T21:23:57.460Z,9.10
2019-03-05T21:28:15.575Z,9.10
2019-03-05T21:32:33.896Z,9.10
2019-03-05T21:36:52.177Z,9.10
2019-03-05T21:41:10.343Z,9.10
2019-03-05T21:45:35.350Z,9.10
2019-03-05T21:49:54.537Z,9.10
2019-03-05T21:54:13.843Z,9.00
2019-03-05T21:58:32.641Z,9.00
2019-03-05T22:02:51.036Z,8.90
2019-03-05T22:07:09.618Z,8.90
2019-03-05T22:11:28.606Z,8.90
2019-03-05T22:15:46.845Z,9.00
2019-03-05T22:20:06.224Z,9.00
2019-03-05T22:24:24.347Z,9.10
2019-03-05T22:28:43.304Z,9.10
2019-03-05T22:33:01.474Z,9.10
2019-03-05T22:37:19.736Z,9.20
2019-03-05T22:41:38.457Z,9.10
2019-03-05T22:45:57.416Z,9.10
2019-03-05T22:50:15.870Z,9.00
2019-03-05T22:54:34.071Z,9.00
2019-03-05T22:58:52.301Z,9.00
2019-03-05T23:03:11.976Z,9.00
2019-03-05T23:07:31.041Z,9.00
2019-03-05T23:11:50.068Z,9.00
2019-03-05T23:16:08.356Z,9.00
2019-03-05T23:20:26.878Z,9.10
2019-03-05T23:24:45.744Z,9.10
2019-03-05T23:29:05.068Z,9.10
2019-03-05T23:33:23.144Z,9.10
2019-03-05T23:37:41.653Z,9.20
2019-03-05T23:41:59.831Z,9.10
2019-03-05T23:46:18.028Z,9.10
2019-03-05T23:50:36.579Z,9.10
2019-03-05T23:54:54.830Z,9.00
2019-03-05T23:59:13.033Z,8.90
